sensor_id;sensor_type;location;lat;lon;timestamp;P1;durP1;ratioP1;P2;durP2;ratioP2
51724;SDS011;37801;53.224;6.552;2022-09-14T00:01:51;5.57;;;2.13;;
51724;SDS011;37801;53.224;6.552;2022-09-14T00:04:17;4.53;;;2.35;;
51724;SDS011;37801;53.224;6.552;2022-09-14T00:06:44;5.82;;;2.15;;
51724;SDS011;37801;53.224;6.552;2022-09-14T00:09:12;4.53;;;2.10;;
51724;SDS011;37801;53.224;6.552;2022-09-14T00:11:41;5.65;;;2.33;;
51724;SDS011;37801;53.224;6.552;2022-09-14T00:14:07;4.30;;;2.15;;
51724;SDS011;37801;53.224;6.552;2022-09-14T00:16:34;6.22;;;2.35;;
51724;SDS011;37801;53.224;6.552;2022-09-14T00:19:07;7.18;;;2.88;;
51724;SDS011;37801;53.224;6.552;2022-09-14T00:21:43;6.68;;;2.50;;
51724;SDS011;37801;53.224;6.552;2022-09-14T00:24:10;5.57;;;2.25;;
51724;SDS011;37801;53.224;6.552;2022-09-14T00:26:36;4.43;;;2.25;;
51724;SDS011;37801;53.224;6.552;2022-09-14T00:29:02;4.78;;;2.60;;
51724;SDS011;37801;53.224;6.552;2022-09-14T00:31:29;4.80;;;2.40;;
51724;SDS011;37801;53.224;6.552;2022-09-14T00:33:56;6.32;;;2.40;;
51724;SDS011;37801;53.224;6.552;2022-09-14T00:36:23;5.78;;;2.53;;
51724;SDS011;37801;53.224;6.552;2022-09-14T00:38:51;4.57;;;2.40;;
51724;SDS011;37801;53.224;6.552;2022-09-14T00:41:25;7.10;;;2.58;;
51724;SDS011;37801;53.224;6.552;2022-09-14T00:43:55;6.32;;;2.25;;
51724;SDS011;37801;53.224;6.552;2022-09-14T00:46:39;5.15;;;2.40;;
51724;SDS011;37801;53.224;6.552;2022-09-14T00:49:17;5.97;;;2.15;;
51724;SDS011;37801;53.224;6.552;2022-09-14T00:51:49;7.05;;;2.35;;
51724;SDS011;37801;53.224;6.552;2022-09-14T00:54:23;4.97;;;2.60;;
51724;SDS011;37801;53.224;6.552;2022-09-14T00:56:49;4.18;;;2.30;;
51724;SDS011;37801;53.224;6.552;2022-09-14T00:59:21;6.95;;;2.67;;
51724;SDS011;37801;53.224;6.552;2022-09-14T01:01:49;6.88;;;2.67;;
51724;SDS011;37801;53.224;6.552;2022-09-14T01:04:15;4.22;;;2.22;;
51724;SDS011;37801;53.224;6.552;2022-09-14T01:15:23;5.07;;;2.25;;
51724;SDS011;37801;53.224;6.552;2022-09-14T01:18:12;6.68;;;2.40;;
51724;SDS011;37801;53.224;6.552;2022-09-14T01:21:03;5.60;;;2.35;;
51724;SDS011;37801;53.224;6.552;2022-09-14T01:29:43;4.63;;;2.15;;
51724;SDS011;37801;53.224;6.552;2022-09-14T01:32:27;4.47;;;2.15;;
51724;SDS011;37801;53.224;6.552;2022-09-14T01:35:08;3.85;;;2.00;;
51724;SDS011;37801;53.224;6.552;2022-09-14T01:37:40;9.02;;;2.00;;
51724;SDS011;37801;53.224;6.552;2022-09-14T01:42:50;4.80;;;2.03;;
51724;SDS011;37801;53.224;6.552;2022-09-14T01:45:19;6.80;;;2.35;;
51724;SDS011;37801;53.224;6.552;2022-09-14T01:47:53;7.38;;;2.38;;
51724;SDS011;37801;53.224;6.552;2022-09-14T01:50:26;4.50;;;2.08;;
51724;SDS011;37801;53.224;6.552;2022-09-14T01:52:59;6.43;;;2.25;;
51724;SDS011;37801;53.224;6.552;2022-09-14T01:55:32;5.25;;;2.53;;
51724;SDS011;37801;53.224;6.552;2022-09-14T02:00:40;5.85;;;2.47;;
51724;SDS011;37801;53.224;6.552;2022-09-14T02:08:31;9.05;;;2.95;;
51724;SDS011;37801;53.224;6.552;2022-09-14T02:10:58;5.55;;;2.60;;
51724;SDS011;37801;53.224;6.552;2022-09-14T02:13:25;4.85;;;2.35;;
51724;SDS011;37801;53.224;6.552;2022-09-14T02:15:51;5.90;;;2.50;;
51724;SDS011;37801;53.224;6.552;2022-09-14T02:18:17;5.40;;;2.38;;
51724;SDS011;37801;53.224;6.552;2022-09-14T02:20:52;4.25;;;2.30;;
51724;SDS011;37801;53.224;6.552;2022-09-14T02:23:22;7.13;;;2.63;;
51724;SDS011;37801;53.224;6.552;2022-09-14T02:25:48;5.15;;;2.30;;
51724;SDS011;37801;53.224;6.552;2022-09-14T02:28:14;7.57;;;2.58;;
51724;SDS011;37801;53.224;6.552;2022-09-14T02:33:22;5.28;;;2.42;;
51724;SDS011;37801;53.224;6.552;2022-09-14T02:36:53;4.47;;;2.30;;
51724;SDS011;37801;53.224;6.552;2022-09-14T02:39:00;4.07;;;2.20;;
51724;SDS011;37801;53.224;6.552;2022-09-14T02:41:37;7.38;;;2.70;;
51724;SDS011;37801;53.224;6.552;2022-09-14T02:44:21;7.63;;;2.80;;
51724;SDS011;37801;53.224;6.552;2022-09-14T02:52:19;5.57;;;2.60;;
51724;SDS011;37801;53.224;6.552;2022-09-14T02:54:55;5.28;;;2.90;;
51724;SDS011;37801;53.224;6.552;2022-09-14T02:57:29;4.63;;;2.58;;
51724;SDS011;37801;53.224;6.552;2022-09-14T02:59:54;8.70;;;2.83;;
51724;SDS011;37801;53.224;6.552;2022-09-14T03:02:20;7.55;;;3.15;;
51724;SDS011;37801;53.224;6.552;2022-09-14T03:04:46;6.25;;;3.20;;
51724;SDS011;37801;53.224;6.552;2022-09-14T03:07:12;5.43;;;3.05;;
51724;SDS011;37801;53.224;6.552;2022-09-14T03:09:38;5.65;;;3.20;;
51724;SDS011;37801;53.224;6.552;2022-09-14T03:12:04;5.70;;;3.40;;
51724;SDS011;37801;53.224;6.552;2022-09-14T03:14:30;5.90;;;3.28;;
51724;SDS011;37801;53.224;6.552;2022-09-14T03:16:55;7.38;;;3.05;;
51724;SDS011;37801;53.224;6.552;2022-09-14T03:19:21;7.82;;;3.58;;
51724;SDS011;37801;53.224;6.552;2022-09-14T03:21:47;5.32;;;2.88;;
51724;SDS011;37801;53.224;6.552;2022-09-14T03:24:12;4.88;;;2.95;;
51724;SDS011;37801;53.224;6.552;2022-09-14T03:26:38;4.70;;;2.90;;
51724;SDS011;37801;53.224;6.552;2022-09-14T03:29:04;5.22;;;3.17;;
51724;SDS011;37801;53.224;6.552;2022-09-14T03:31:31;9.63;;;3.33;;
51724;SDS011;37801;53.224;6.552;2022-09-14T03:33:57;6.38;;;3.00;;
51724;SDS011;37801;53.224;6.552;2022-09-14T03:36:26;6.45;;;2.90;;
51724;SDS011;37801;53.224;6.552;2022-09-14T03:38:54;6.28;;;2.90;;
51724;SDS011;37801;53.224;6.552;2022-09-14T03:41:22;6.97;;;3.00;;
51724;SDS011;37801;53.224;6.552;2022-09-14T03:43:48;5.78;;;3.20;;
51724;SDS011;37801;53.224;6.552;2022-09-14T03:46:16;6.07;;;3.20;;
51724;SDS011;37801;53.224;6.552;2022-09-14T03:48:45;5.50;;;2.72;;
51724;SDS011;37801;53.224;6.552;2022-09-14T03:51:11;4.72;;;2.78;;
51724;SDS011;37801;53.224;6.552;2022-09-14T03:53:38;7.03;;;3.15;;
51724;SDS011;37801;53.224;6.552;2022-09-14T03:56:05;7.03;;;3.40;;
51724;SDS011;37801;53.224;6.552;2022-09-14T03:58:32;5.63;;;2.88;;
51724;SDS011;37801;53.224;6.552;2022-09-14T04:01:04;5.60;;;3.25;;
51724;SDS011;37801;53.224;6.552;2022-09-14T04:03:31;6.13;;;3.15;;
51724;SDS011;37801;53.224;6.552;2022-09-14T04:05:57;5.57;;;3.25;;
51724;SDS011;37801;53.224;6.552;2022-09-14T04:08:23;4.68;;;3.17;;
51724;SDS011;37801;53.224;6.552;2022-09-14T04:10:49;6.28;;;3.28;;
51724;SDS011;37801;53.224;6.552;2022-09-14T04:13:15;7.75;;;3.58;;
51724;SDS011;37801;53.224;6.552;2022-09-14T04:15:41;5.60;;;2.90;;
51724;SDS011;37801;53.224;6.552;2022-09-14T04:18:07;7.32;;;2.97;;
51724;SDS011;37801;53.224;6.552;2022-09-14T04:20:33;8.38;;;3.13;;
51724;SDS011;37801;53.224;6.552;2022-09-14T04:22:58;4.93;;;3.40;;
51724;SDS011;37801;53.224;6.552;2022-09-14T04:25:24;8.05;;;3.53;;
51724;SDS011;37801;53.224;6.552;2022-09-14T04:27:50;5.35;;;3.30;;
51724;SDS011;37801;53.224;6.552;2022-09-14T04:30:15;7.13;;;3.10;;
51724;SDS011;37801;53.224;6.552;2022-09-14T04:32:41;6.40;;;3.40;;
51724;SDS011;37801;53.224;6.552;2022-09-14T04:35:08;5.05;;;3.35;;
51724;SDS011;37801;53.224;6.552;2022-09-14T04:37:34;6.53;;;3.20;;
51724;SDS011;37801;53.224;6.552;2022-09-14T04:40:00;6.85;;;3.55;;
51724;SDS011;37801;53.224;6.552;2022-09-14T04:42:26;4.82;;;3.15;;
51724;SDS011;37801;53.224;6.552;2022-09-14T04:44:53;11.20;;;3.53;;
51724;SDS011;37801;53.224;6.552;2022-09-14T04:47:19;7.18;;;3.28;;
51724;SDS011;37801;53.224;6.552;2022-09-14T04:49:44;7.20;;;3.22;;
51724;SDS011;37801;53.224;6.552;2022-09-14T04:52:10;6.22;;;3.35;;
51724;SDS011;37801;53.224;6.552;2022-09-14T04:54:36;5.22;;;3.42;;
51724;SDS011;37801;53.224;6.552;2022-09-14T04:57:01;5.68;;;3.60;;
51724;SDS011;37801;53.224;6.552;2022-09-14T04:59:27;7.03;;;3.42;;
51724;SDS011;37801;53.224;6.552;2022-09-14T05:01:53;6.55;;;3.42;;
51724;SDS011;37801;53.224;6.552;2022-09-14T05:04:18;7.07;;;3.40;;
51724;SDS011;37801;53.224;6.552;2022-09-14T05:06:44;6.82;;;3.53;;
51724;SDS011;37801;53.224;6.552;2022-09-14T05:09:14;6.03;;;3.00;;
51724;SDS011;37801;53.224;6.552;2022-09-14T05:11:41;4.88;;;3.13;;
51724;SDS011;37801;53.224;6.552;2022-09-14T05:14:08;5.75;;;3.05;;
51724;SDS011;37801;53.224;6.552;2022-09-14T05:16:37;6.35;;;3.15;;
51724;SDS011;37801;53.224;6.552;2022-09-14T05:19:04;5.00;;;3.05;;
51724;SDS011;37801;53.224;6.552;2022-09-14T05:21:32;6.60;;;3.40;;
51724;SDS011;37801;53.224;6.552;2022-09-14T05:24:09;6.43;;;3.35;;
51724;SDS011;37801;53.224;6.552;2022-09-14T05:26:38;5.57;;;3.38;;
51724;SDS011;37801;53.224;6.552;2022-09-14T05:29:05;6.35;;;3.38;;
51724;SDS011;37801;53.224;6.552;2022-09-14T05:31:31;7.88;;;3.53;;
51724;SDS011;37801;53.224;6.552;2022-09-14T05:33:57;8.40;;;3.33;;
51724;SDS011;37801;53.224;6.552;2022-09-14T05:36:23;4.57;;;3.10;;
51724;SDS011;37801;53.224;6.552;2022-09-14T05:38:49;6.78;;;3.40;;
51724;SDS011;37801;53.224;6.552;2022-09-14T05:41:16;4.38;;;3.22;;
51724;SDS011;37801;53.224;6.552;2022-09-14T05:43:42;7.03;;;3.63;;
51724;SDS011;37801;53.224;6.552;2022-09-14T05:46:12;8.23;;;3.67;;
51724;SDS011;37801;53.224;6.552;2022-09-14T05:48:39;8.65;;;3.40;;
51724;SDS011;37801;53.224;6.552;2022-09-14T05:51:07;6.28;;;3.00;;
51724;SDS011;37801;53.224;6.552;2022-09-14T05:53:38;5.83;;;3.37;;
51724;SDS011;37801;53.224;6.552;2022-09-14T05:56:11;6.68;;;3.35;;
51724;SDS011;37801;53.224;6.552;2022-09-14T05:58:38;6.43;;;3.55;;
51724;SDS011;37801;53.224;6.552;2022-09-14T06:01:05;8.02;;;3.72;;
51724;SDS011;37801;53.224;6.552;2022-09-14T06:03:41;7.95;;;4.47;;
51724;SDS011;37801;53.224;6.552;2022-09-14T06:06:10;10.32;;;4.95;;
51724;SDS011;37801;53.224;6.552;2022-09-14T06:08:37;10.10;;;3.70;;
51724;SDS011;37801;53.224;6.552;2022-09-14T06:11:04;6.07;;;2.85;;
51724;SDS011;37801;53.224;6.552;2022-09-14T06:13:39;5.97;;;2.33;;
51724;SDS011;37801;53.224;6.552;2022-09-14T06:16:06;7.82;;;3.00;;
51724;SDS011;37801;53.224;6.552;2022-09-14T06:18:34;5.13;;;3.03;;
51724;SDS011;37801;53.224;6.552;2022-09-14T06:21:00;7.97;;;3.60;;
51724;SDS011;37801;53.224;6.552;2022-09-14T06:23:27;5.85;;;3.00;;
51724;SDS011;37801;53.224;6.552;2022-09-14T06:25:54;4.43;;;2.20;;
51724;SDS011;37801;53.224;6.552;2022-09-14T06:28:21;4.68;;;1.92;;
51724;SDS011;37801;53.224;6.552;2022-09-14T06:30:47;5.97;;;2.33;;
51724;SDS011;37801;53.224;6.552;2022-09-14T06:33:13;4.55;;;1.90;;
51724;SDS011;37801;53.224;6.552;2022-09-14T06:35:40;6.38;;;1.80;;
51724;SDS011;37801;53.224;6.552;2022-09-14T06:38:06;5.45;;;1.95;;
51724;SDS011;37801;53.224;6.552;2022-09-14T06:40:33;8.43;;;2.22;;
51724;SDS011;37801;53.224;6.552;2022-09-14T06:42:59;5.03;;;1.60;;
51724;SDS011;37801;53.224;6.552;2022-09-14T06:45:29;5.72;;;1.90;;
51724;SDS011;37801;53.224;6.552;2022-09-14T06:47:56;4.97;;;2.00;;
51724;SDS011;37801;53.224;6.552;2022-09-14T06:50:22;7.10;;;1.92;;
51724;SDS011;37801;53.224;6.552;2022-09-14T06:52:48;6.43;;;1.90;;
51724;SDS011;37801;53.224;6.552;2022-09-14T06:55:14;5.45;;;1.95;;
51724;SDS011;37801;53.224;6.552;2022-09-14T06:57:40;5.72;;;2.05;;
51724;SDS011;37801;53.224;6.552;2022-09-14T07:00:06;7.45;;;1.92;;
51724;SDS011;37801;53.224;6.552;2022-09-14T07:02:32;7.30;;;2.00;;
51724;SDS011;37801;53.224;6.552;2022-09-14T07:04:58;6.72;;;2.00;;
51724;SDS011;37801;53.224;6.552;2022-09-14T07:07:24;6.82;;;1.65;;
51724;SDS011;37801;53.224;6.552;2022-09-14T07:09:49;5.68;;;1.90;;
51724;SDS011;37801;53.224;6.552;2022-09-14T07:12:15;4.72;;;1.67;;
51724;SDS011;37801;53.224;6.552;2022-09-14T07:14:41;6.13;;;1.95;;
51724;SDS011;37801;53.224;6.552;2022-09-14T07:17:06;7.25;;;2.22;;
51724;SDS011;37801;53.224;6.552;2022-09-14T07:19:32;5.00;;;2.00;;
51724;SDS011;37801;53.224;6.552;2022-09-14T07:21:59;8.02;;;2.17;;
51724;SDS011;37801;53.224;6.552;2022-09-14T07:24:24;5.63;;;1.77;;
51724;SDS011;37801;53.224;6.552;2022-09-14T07:26:50;5.43;;;2.10;;
51724;SDS011;37801;53.224;6.552;2022-09-14T07:29:16;2.58;;;1.42;;
51724;SDS011;37801;53.224;6.552;2022-09-14T07:31:48;5.78;;;2.05;;
51724;SDS011;37801;53.224;6.552;2022-09-14T07:34:15;5.68;;;1.80;;
51724;SDS011;37801;53.224;6.552;2022-09-14T07:36:42;5.07;;;1.75;;
51724;SDS011;37801;53.224;6.552;2022-09-14T07:39:11;5.90;;;1.80;;
51724;SDS011;37801;53.224;6.552;2022-09-14T07:41:38;6.07;;;1.92;;
51724;SDS011;37801;53.224;6.552;2022-09-14T07:44:05;3.45;;;1.52;;
51724;SDS011;37801;53.224;6.552;2022-09-14T07:46:35;3.35;;;1.75;;
51724;SDS011;37801;53.224;6.552;2022-09-14T07:49:03;6.60;;;1.88;;
51724;SDS011;37801;53.224;6.552;2022-09-14T07:51:30;5.03;;;1.65;;
51724;SDS011;37801;53.224;6.552;2022-09-14T07:53:57;5.57;;;1.90;;
51724;SDS011;37801;53.224;6.552;2022-09-14T07:56:24;7.93;;;1.95;;
51724;SDS011;37801;53.224;6.552;2022-09-14T07:58:54;4.30;;;1.42;;
51724;SDS011;37801;53.224;6.552;2022-09-14T08:01:22;8.95;;;1.83;;
51724;SDS011;37801;53.224;6.552;2022-09-14T08:03:48;4.70;;;1.55;;
51724;SDS011;37801;53.224;6.552;2022-09-14T08:08:42;6.28;;;1.50;;
51724;SDS011;37801;53.224;6.552;2022-09-14T08:11:13;5.90;;;1.40;;
51724;SDS011;37801;53.224;6.552;2022-09-14T08:13:41;5.35;;;1.50;;
51724;SDS011;37801;53.224;6.552;2022-09-14T08:16:09;6.72;;;1.30;;
51724;SDS011;37801;53.224;6.552;2022-09-14T08:18:36;3.67;;;1.10;;
51724;SDS011;37801;53.224;6.552;2022-09-14T08:21:06;5.03;;;1.02;;
51724;SDS011;37801;53.224;6.552;2022-09-14T08:23:40;6.82;;;1.30;;
51724;SDS011;37801;53.224;6.552;2022-09-14T08:26:10;5.57;;;1.20;;
51724;SDS011;37801;53.224;6.552;2022-09-14T08:28:37;7.50;;;1.55;;
51724;SDS011;37801;53.224;6.552;2022-09-14T08:33:30;4.35;;;1.15;;
51724;SDS011;37801;53.224;6.552;2022-09-14T08:35:58;5.57;;;1.40;;
51724;SDS011;37801;53.224;6.552;2022-09-14T08:38:24;4.65;;;1.10;;
51724;SDS011;37801;53.224;6.552;2022-09-14T08:40:50;6.53;;;1.23;;
51724;SDS011;37801;53.224;6.552;2022-09-14T08:43:16;7.07;;;1.00;;
51724;SDS011;37801;53.224;6.552;2022-09-14T08:45:45;5.55;;;1.10;;
51724;SDS011;37801;53.224;6.552;2022-09-14T08:48:32;7.45;;;1.42;;
51724;SDS011;37801;53.224;6.552;2022-09-14T08:51:01;4.47;;;1.20;;
51724;SDS011;37801;53.224;6.552;2022-09-14T08:53:29;5.28;;;1.00;;
51724;SDS011;37801;53.224;6.552;2022-09-14T09:04:20;3.88;;;1.00;;
51724;SDS011;37801;53.224;6.552;2022-09-14T09:06:51;4.68;;;1.00;;
51724;SDS011;37801;53.224;6.552;2022-09-14T09:14:47;4.90;;;0.90;;
51724;SDS011;37801;53.224;6.552;2022-09-14T09:17:20;4.80;;;1.27;;
51724;SDS011;37801;53.224;6.552;2022-09-14T09:22:24;6.30;;;1.13;;
51724;SDS011;37801;53.224;6.552;2022-09-14T09:24:55;4.78;;;1.27;;
51724;SDS011;37801;53.224;6.552;2022-09-14T09:27:22;4.32;;;0.90;;
51724;SDS011;37801;53.224;6.552;2022-09-14T09:29:50;5.72;;;1.10;;
51724;SDS011;37801;53.224;6.552;2022-09-14T09:32:17;4.75;;;0.93;;
51724;SDS011;37801;53.224;6.552;2022-09-14T09:34:45;5.68;;;1.20;;
51724;SDS011;37801;53.224;6.552;2022-09-14T09:37:15;3.83;;;1.00;;
51724;SDS011;37801;53.224;6.552;2022-09-14T09:39:43;6.35;;;1.05;;
51724;SDS011;37801;53.224;6.552;2022-09-14T09:42:13;8.90;;;1.30;;
51724;SDS011;37801;53.224;6.552;2022-09-14T09:44:52;5.10;;;1.10;;
51724;SDS011;37801;53.224;6.552;2022-09-14T09:47:29;7.65;;;1.30;;
51724;SDS011;37801;53.224;6.552;2022-09-14T09:52:48;6.83;;;1.20;;
51724;SDS011;37801;53.224;6.552;2022-09-14T09:55:19;5.07;;;0.90;;
51724;SDS011;37801;53.224;6.552;2022-09-14T09:57:47;4.78;;;1.15;;
51724;SDS011;37801;53.224;6.552;2022-09-14T10:00:21;5.60;;;1.10;;
51724;SDS011;37801;53.224;6.552;2022-09-14T10:02:51;9.43;;;1.42;;
51724;SDS011;37801;53.224;6.552;2022-09-14T10:05:28;4.72;;;1.10;;
51724;SDS011;37801;53.224;6.552;2022-09-14T10:08:00;4.30;;;1.00;;
51724;SDS011;37801;53.224;6.552;2022-09-14T10:13:00;7.05;;;1.27;;
51724;SDS011;37801;53.224;6.552;2022-09-14T10:15:34;6.10;;;1.20;;
51724;SDS011;37801;53.224;6.552;2022-09-14T10:18:06;6.15;;;1.08;;
51724;SDS011;37801;53.224;6.552;2022-09-14T10:20:36;6.32;;;1.30;;
51724;SDS011;37801;53.224;6.552;2022-09-14T10:23:40;6.45;;;1.38;;
51724;SDS011;37801;53.224;6.552;2022-09-14T10:28:47;4.53;;;0.80;;
51724;SDS011;37801;53.224;6.552;2022-09-14T10:33:41;8.55;;;0.90;;
51724;SDS011;37801;53.224;6.552;2022-09-14T10:36:15;4.05;;;1.10;;
51724;SDS011;37801;53.224;6.552;2022-09-14T10:38:56;6.63;;;1.10;;
51724;SDS011;37801;53.224;6.552;2022-09-14T10:47:27;4.32;;;1.08;;
51724;SDS011;37801;53.224;6.552;2022-09-14T11:07:06;3.40;;;0.90;;
51724;SDS011;37801;53.224;6.552;2022-09-14T11:10:09;3.15;;;0.88;;
51724;SDS011;37801;53.224;6.552;2022-09-14T11:12:50;3.53;;;0.85;;
51724;SDS011;37801;53.224;6.552;2022-09-14T11:28:49;5.20;;;0.93;;
51724;SDS011;37801;53.224;6.552;2022-09-14T11:31:45;4.68;;;0.93;;
51724;SDS011;37801;53.224;6.552;2022-09-14T11:37:03;3.03;;;1.05;;
51724;SDS011;37801;53.224;6.552;2022-09-14T11:39:35;2.70;;;0.60;;
51724;SDS011;37801;53.224;6.552;2022-09-14T11:42:13;4.30;;;0.98;;
51724;SDS011;37801;53.224;6.552;2022-09-14T11:47:17;3.45;;;1.10;;
51724;SDS011;37801;53.224;6.552;2022-09-14T11:52:29;3.65;;;1.10;;
51724;SDS011;37801;53.224;6.552;2022-09-14T11:54:56;3.80;;;0.80;;
51724;SDS011;37801;53.224;6.552;2022-09-14T11:57:27;4.72;;;1.00;;
51724;SDS011;37801;53.224;6.552;2022-09-14T11:59:55;5.22;;;1.10;;
51724;SDS011;37801;53.224;6.552;2022-09-14T12:03:14;3.20;;;0.85;;
51724;SDS011;37801;53.224;6.552;2022-09-14T12:05:42;3.28;;;1.10;;
51724;SDS011;37801;53.224;6.552;2022-09-14T12:08:23;3.85;;;0.93;;
51724;SDS011;37801;53.224;6.552;2022-09-14T12:13:34;5.78;;;1.15;;
51724;SDS011;37801;53.224;6.552;2022-09-14T12:16:04;5.70;;;1.05;;
51724;SDS011;37801;53.224;6.552;2022-09-14T12:18:33;5.25;;;1.00;;
51724;SDS011;37801;53.224;6.552;2022-09-14T12:24:02;3.17;;;0.98;;
51724;SDS011;37801;53.224;6.552;2022-09-14T12:26:39;7.47;;;1.42;;
51724;SDS011;37801;53.224;6.552;2022-09-14T12:29:05;3.42;;;0.90;;
51724;SDS011;37801;53.224;6.552;2022-09-14T12:47:36;6.15;;;1.10;;
51724;SDS011;37801;53.224;6.552;2022-09-14T12:49:50;4.07;;;0.95;;
51724;SDS011;37801;53.224;6.552;2022-09-14T12:57:58;4.55;;;1.20;;
51724;SDS011;37801;53.224;6.552;2022-09-14T13:00:31;4.18;;;1.08;;
51724;SDS011;37801;53.224;6.552;2022-09-14T13:03:13;3.83;;;1.23;;
51724;SDS011;37801;53.224;6.552;2022-09-14T13:06:11;6.50;;;1.10;;
51724;SDS011;37801;53.224;6.552;2022-09-14T13:08:38;4.38;;;0.90;;
51724;SDS011;37801;53.224;6.552;2022-09-14T13:11:09;4.75;;;1.15;;
51724;SDS011;37801;53.224;6.552;2022-09-14T13:13:42;4.28;;;1.05;;
51724;SDS011;37801;53.224;6.552;2022-09-14T13:16:12;3.40;;;1.10;;
51724;SDS011;37801;53.224;6.552;2022-09-14T13:18:48;5.15;;;1.33;;
51724;SDS011;37801;53.224;6.552;2022-09-14T13:21:23;4.28;;;0.85;;
51724;SDS011;37801;53.224;6.552;2022-09-14T13:23:49;4.38;;;1.10;;
51724;SDS011;37801;53.224;6.552;2022-09-14T13:28:50;4.22;;;1.05;;
51724;SDS011;37801;53.224;6.552;2022-09-14T13:31:18;4.35;;;1.08;;
51724;SDS011;37801;53.224;6.552;2022-09-14T13:33:56;2.97;;;0.95;;
51724;SDS011;37801;53.224;6.552;2022-09-14T13:36:23;5.05;;;0.93;;
51724;SDS011;37801;53.224;6.552;2022-09-14T13:38:51;5.30;;;0.93;;
51724;SDS011;37801;53.224;6.552;2022-09-14T13:41:19;6.45;;;1.02;;
51724;SDS011;37801;53.224;6.552;2022-09-14T13:43:47;4.15;;;0.88;;
51724;SDS011;37801;53.224;6.552;2022-09-14T13:46:16;3.78;;;0.80;;
51724;SDS011;37801;53.224;6.552;2022-09-14T13:48:42;5.35;;;1.25;;
51724;SDS011;37801;53.224;6.552;2022-09-14T13:51:09;3.30;;;0.90;;
51724;SDS011;37801;53.224;6.552;2022-09-14T13:53:42;3.58;;;1.00;;
51724;SDS011;37801;53.224;6.552;2022-09-14T14:04:46;5.60;;;1.33;;
51724;SDS011;37801;53.224;6.552;2022-09-14T14:09:40;4.53;;;0.80;;
51724;SDS011;37801;53.224;6.552;2022-09-14T14:12:10;6.38;;;1.10;;
51724;SDS011;37801;53.224;6.552;2022-09-14T14:14:50;3.30;;;0.98;;
51724;SDS011;37801;53.224;6.552;2022-09-14T14:20:26;2.85;;;0.75;;
51724;SDS011;37801;53.224;6.552;2022-09-14T14:22:55;5.25;;;0.90;;
51724;SDS011;37801;53.224;6.552;2022-09-14T14:25:31;3.90;;;0.98;;
51724;SDS011;37801;53.224;6.552;2022-09-14T14:28:00;6.85;;;1.40;;
51724;SDS011;37801;53.224;6.552;2022-09-14T14:30:27;3.70;;;1.00;;
51724;SDS011;37801;53.224;6.552;2022-09-14T14:32:55;4.47;;;1.00;;
51724;SDS011;37801;53.224;6.552;2022-09-14T14:35:26;2.05;;;0.75;;
51724;SDS011;37801;53.224;6.552;2022-09-14T14:37:54;3.80;;;1.02;;
51724;SDS011;37801;53.224;6.552;2022-09-14T14:40:21;2.88;;;0.75;;
51724;SDS011;37801;53.224;6.552;2022-09-14T14:42:48;3.75;;;0.80;;
51724;SDS011;37801;53.224;6.552;2022-09-14T14:45:17;4.65;;;0.90;;
51724;SDS011;37801;53.224;6.552;2022-09-14T14:47:44;4.13;;;1.02;;
51724;SDS011;37801;53.224;6.552;2022-09-14T14:50:15;4.00;;;1.00;;
51724;SDS011;37801;53.224;6.552;2022-09-14T14:52:43;4.82;;;1.08;;
51724;SDS011;37801;53.224;6.552;2022-09-14T14:55:08;4.15;;;0.80;;
51724;SDS011;37801;53.224;6.552;2022-09-14T14:57:34;4.97;;;0.82;;
51724;SDS011;37801;53.224;6.552;2022-09-14T15:00:03;5.18;;;1.00;;
51724;SDS011;37801;53.224;6.552;2022-09-14T15:02:30;4.85;;;1.08;;
51724;SDS011;37801;53.224;6.552;2022-09-14T15:04:56;2.25;;;0.75;;
51724;SDS011;37801;53.224;6.552;2022-09-14T15:07:21;3.78;;;0.85;;
51724;SDS011;37801;53.224;6.552;2022-09-14T15:09:47;4.95;;;0.77;;
51724;SDS011;37801;53.224;6.552;2022-09-14T15:12:13;5.43;;;0.80;;
51724;SDS011;37801;53.224;6.552;2022-09-14T15:14:39;5.18;;;0.82;;
51724;SDS011;37801;53.224;6.552;2022-09-14T15:17:04;3.88;;;0.88;;
51724;SDS011;37801;53.224;6.552;2022-09-14T15:19:30;2.95;;;0.85;;
51724;SDS011;37801;53.224;6.552;2022-09-14T15:21:56;5.93;;;0.75;;
51724;SDS011;37801;53.224;6.552;2022-09-14T15:24:21;2.83;;;0.73;;
51724;SDS011;37801;53.224;6.552;2022-09-14T15:26:47;4.47;;;0.77;;
51724;SDS011;37801;53.224;6.552;2022-09-14T15:29:13;3.92;;;0.80;;
51724;SDS011;37801;53.224;6.552;2022-09-14T15:31:42;4.25;;;1.00;;
51724;SDS011;37801;53.224;6.552;2022-09-14T15:34:08;2.80;;;0.77;;
51724;SDS011;37801;53.224;6.552;2022-09-14T15:36:38;4.65;;;0.93;;
51724;SDS011;37801;53.224;6.552;2022-09-14T15:39:15;2.80;;;0.52;;
51724;SDS011;37801;53.224;6.552;2022-09-14T15:41:42;3.65;;;0.90;;
51724;SDS011;37801;53.224;6.552;2022-09-14T15:44:08;4.25;;;0.63;;
51724;SDS011;37801;53.224;6.552;2022-09-14T15:46:36;3.25;;;0.98;;
51724;SDS011;37801;53.224;6.552;2022-09-14T15:49:07;3.83;;;0.90;;
51724;SDS011;37801;53.224;6.552;2022-09-14T15:51:35;2.10;;;0.70;;
51724;SDS011;37801;53.224;6.552;2022-09-14T15:54:01;5.78;;;0.90;;
51724;SDS011;37801;53.224;6.552;2022-09-14T15:56:28;2.78;;;0.73;;
51724;SDS011;37801;53.224;6.552;2022-09-14T15:58:57;5.15;;;1.05;;
51724;SDS011;37801;53.224;6.552;2022-09-14T16:01:25;3.72;;;0.85;;
51724;SDS011;37801;53.224;6.552;2022-09-14T16:03:58;3.13;;;0.93;;
51724;SDS011;37801;53.224;6.552;2022-09-14T16:06:28;4.97;;;1.10;;
51724;SDS011;37801;53.224;6.552;2022-09-14T16:08:55;4.60;;;0.90;;
51724;SDS011;37801;53.224;6.552;2022-09-14T16:11:22;3.60;;;0.98;;
51724;SDS011;37801;53.224;6.552;2022-09-14T16:13:48;3.90;;;0.90;;
51724;SDS011;37801;53.224;6.552;2022-09-14T16:16:15;3.17;;;1.00;;
51724;SDS011;37801;53.224;6.552;2022-09-14T16:18:42;2.17;;;0.73;;
51724;SDS011;37801;53.224;6.552;2022-09-14T16:21:15;4.93;;;0.70;;
51724;SDS011;37801;53.224;6.552;2022-09-14T16:26:09;5.43;;;1.00;;
51724;SDS011;37801;53.224;6.552;2022-09-14T16:28:38;3.63;;;0.95;;
51724;SDS011;37801;53.224;6.552;2022-09-14T16:31:12;6.82;;;1.10;;
51724;SDS011;37801;53.224;6.552;2022-09-14T16:33:47;4.75;;;0.90;;
51724;SDS011;37801;53.224;6.552;2022-09-14T16:36:15;3.78;;;0.90;;
51724;SDS011;37801;53.224;6.552;2022-09-14T16:38:45;2.30;;;0.90;;
51724;SDS011;37801;53.224;6.552;2022-09-14T16:41:11;2.67;;;0.82;;
51724;SDS011;37801;53.224;6.552;2022-09-14T16:43:38;3.28;;;0.80;;
51724;SDS011;37801;53.224;6.552;2022-09-14T16:46:05;3.50;;;0.90;;
51724;SDS011;37801;53.224;6.552;2022-09-14T16:48:31;11.98;;;1.60;;
51724;SDS011;37801;53.224;6.552;2022-09-14T16:50:58;2.63;;;0.85;;
51724;SDS011;37801;53.224;6.552;2022-09-14T16:53:28;4.13;;;1.00;;
51724;SDS011;37801;53.224;6.552;2022-09-14T16:55:59;3.08;;;0.88;;
51724;SDS011;37801;53.224;6.552;2022-09-14T16:58:30;2.67;;;1.00;;
51724;SDS011;37801;53.224;6.552;2022-09-14T17:00:59;4.30;;;0.88;;
51724;SDS011;37801;53.224;6.552;2022-09-14T17:03:56;5.25;;;1.00;;
51724;SDS011;37801;53.224;6.552;2022-09-14T17:06:28;4.97;;;0.82;;
51724;SDS011;37801;53.224;6.552;2022-09-14T17:09:00;2.95;;;0.95;;
51724;SDS011;37801;53.224;6.552;2022-09-14T17:11:30;3.93;;;1.47;;
51724;SDS011;37801;53.224;6.552;2022-09-14T17:13:57;5.13;;;1.02;;
51724;SDS011;37801;53.224;6.552;2022-09-14T17:16:24;2.55;;;0.80;;
51724;SDS011;37801;53.224;6.552;2022-09-14T17:18:51;5.80;;;1.10;;
51724;SDS011;37801;53.224;6.552;2022-09-14T17:21:19;4.20;;;0.95;;
51724;SDS011;37801;53.224;6.552;2022-09-14T17:23:47;2.15;;;0.80;;
51724;SDS011;37801;53.224;6.552;2022-09-14T17:26:13;5.47;;;1.23;;
51724;SDS011;37801;53.224;6.552;2022-09-14T17:28:42;3.30;;;1.02;;
51724;SDS011;37801;53.224;6.552;2022-09-14T17:31:12;4.38;;;1.30;;
51724;SDS011;37801;53.224;6.552;2022-09-14T17:33:39;4.15;;;0.90;;
51724;SDS011;37801;53.224;6.552;2022-09-14T17:36:05;4.88;;;1.15;;
51724;SDS011;37801;53.224;6.552;2022-09-14T17:38:35;7.47;;;0.90;;